sensor_id;sensor_type;location;lat;lon;timestamp;pressure;altitude;pressure_sealevel;temperature;humidity
9277;BME280;4676;42.678;23.244;2023-04-25T00:02:24;93348.22;;;10.37;100.00
9277;BME280;4676;42.678;23.244;2023-04-25T00:04:51;93346.41;;;10.39;100.00
9277;BME280;4676;42.678;23.244;2023-04-25T00:07:19;93326.97;;;10.39;100.00
9277;BME280;4676;42.678;23.244;2023-04-25T00:09:45;93315.47;;;10.34;100.00
9277;BME280;4676;42.678;23.244;2023-04-25T00:12:12;93310.63;;;10.29;100.00
9277;BME280;4676;42.678;23.244;2023-04-25T00:14:39;93312.25;;;10.30;100.00
9277;BME280;4676;42.678;23.244;2023-04-25T00:19:33;93317.22;;;10.32;100.00
9277;BME280;4676;42.678;23.244;2023-04-25T00:22:00;93311.34;;;10.31;100.00
9277;BME280;4676;42.678;23.244;2023-04-25T00:24:28;93311.34;;;10.31;100.00
9277;BME280;4676;42.678;23.244;2023-04-25T00:26:55;93321.72;;;10.27;100.00
9277;BME280;4676;42.678;23.244;2023-04-25T00:29:22;93299.56;;;10.15;100.00
9277;BME280;4676;42.678;23.244;2023-04-25T00:31:48;93316.66;;;10.27;100.00
9277;BME280;4676;42.678;23.244;2023-04-25T00:34:15;93320.97;;;10.25;100.00
9277;BME280;4676;42.678;23.244;2023-04-25T00:36:42;93322.56;;;10.27;100.00
9277;BME280;4676;42.678;23.244;2023-04-25T00:39:08;93299.84;;;10.26;100.00
9277;BME280;4676;42.678;23.244;2023-04-25T00:41:37;93328.28;;;10.31;100.00
9277;BME280;4676;42.678;23.244;2023-04-25T00:44:03;93326.31;;;10.36;100.00
9277;BME280;4676;42.678;23.244;2023-04-25T00:46:32;93311.59;;;10.27;100.00
9277;BME280;4676;42.678;23.244;2023-04-25T00:48:59;93321.91;;;10.24;100.00
9277;BME280;4676;42.678;23.244;2023-04-25T00:51:26;93307.81;;;10.18;100.00
9277;BME280;4676;42.678;23.244;2023-04-25T00:53:53;93275.63;;;9.87;100.00
9277;BME280;4676;42.678;23.244;2023-04-25T00:56:20;93305.28;;;10.18;100.00
9277;BME280;4676;42.678;23.244;2023-04-25T00:58:49;93281.47;;;10.05;100.00
9277;BME280;4676;42.678;23.244;2023-04-25T01:01:17;93273.53;;;10.11;100.00
9277;BME280;4676;42.678;23.244;2023-04-25T01:03:46;93240.09;;;9.89;100.00
9277;BME280;4676;42.678;23.244;2023-04-25T01:06:13;93273.22;;;10.34;100.00
9277;BME280;4676;42.678;23.244;2023-04-25T01:08:39;93277.75;;;10.28;100.00
9277;BME280;4676;42.678;23.244;2023-04-25T01:11:06;93260.13;;;10.26;100.00
9277;BME280;4676;42.678;23.244;2023-04-25T01:13:34;93269.31;;;10.44;100.00
9277;BME280;4676;42.678;23.244;2023-04-25T01:16:02;93268.00;;;10.37;100.00
9277;BME280;4676;42.678;23.244;2023-04-25T01:18:29;93273.94;;;10.36;100.00
9277;BME280;4676;42.678;23.244;2023-04-25T01:21:02;93274.13;;;10.33;100.00
9277;BME280;4676;42.678;23.244;2023-04-25T01:23:33;93276.53;;;10.35;100.00
9277;BME280;4676;42.678;23.244;2023-04-25T01:26:00;93269.94;;;10.17;100.00
9277;BME280;4676;42.678;23.244;2023-04-25T01:28:27;93278.25;;;10.19;100.00
9277;BME280;4676;42.678;23.244;2023-04-25T01:30:54;93290.91;;;10.19;100.00
9277;BME280;4676;42.678;23.244;2023-04-25T01:33:22;93286.38;;;10.08;100.00
9277;BME280;4676;42.678;23.244;2023-04-25T01:35:49;93285.53;;;10.08;100.00
9277;BME280;4676;42.678;23.244;2023-04-25T01:38:17;93290.69;;;10.06;100.00
9277;BME280;4676;42.678;23.244;2023-04-25T01:40:45;93278.28;;;10.01;100.00
9277;BME280;4676;42.678;23.244;2023-04-25T01:43:12;93259.44;;;9.74;100.00
9277;BME280;4676;42.678;23.244;2023-04-25T01:45:40;93284.97;;;9.85;100.00
9277;BME280;4676;42.678;23.244;2023-04-25T01:48:07;93289.25;;;9.85;100.00
9277;BME280;4676;42.678;23.244;2023-04-25T01:50:34;93283.75;;;9.77;100.00
9277;BME280;4676;42.678;23.244;2023-04-25T01:53:00;93274.22;;;9.65;100.00
9277;BME280;4676;42.678;23.244;2023-04-25T01:55:29;93289.69;;;9.76;100.00
9277;BME280;4676;42.678;23.244;2023-04-25T01:57:56;93291.41;;;9.75;100.00
9277;BME280;4676;42.678;23.244;2023-04-25T02:00:23;93298.41;;;9.70;100.00
9277;BME280;4676;42.678;23.244;2023-04-25T02:02:50;93295.28;;;9.65;100.00
9277;BME280;4676;42.678;23.244;2023-04-25T02:05:19;93298.78;;;9.80;100.00
9277;BME280;4676;42.678;23.244;2023-04-25T02:07:47;93299.09;;;9.74;100.00
9277;BME280;4676;42.678;23.244;2023-04-25T02:10:14;93278.19;;;9.70;100.00
9277;BME280;4676;42.678;23.244;2023-04-25T02:12:42;93274.88;;;9.68;100.00
9277;BME280;4676;42.678;23.244;2023-04-25T02:15:09;93281.00;;;9.64;100.00
9277;BME280;4676;42.678;23.244;2023-04-25T02:17:37;93265.97;;;9.61;100.00
9277;BME280;4676;42.678;23.244;2023-04-25T02:20:05;93261.06;;;9.58;100.00
9277;BME280;4676;42.678;23.244;2023-04-25T02:22:32;93262.03;;;9.56;100.00
9277;BME280;4676;42.678;23.244;2023-04-25T02:24:59;93267.41;;;9.67;100.00
9277;BME280;4676;42.678;23.244;2023-04-25T02:27:26;93266.19;;;9.74;100.00
9277;BME280;4676;42.678;23.244;2023-04-25T02:29:54;93261.56;;;9.65;100.00
9277;BME280;4676;42.678;23.244;2023-04-25T02:32:20;93256.59;;;9.63;100.00
9277;BME280;4676;42.678;23.244;2023-04-25T02:34:47;93255.63;;;9.66;100.00
9277;BME280;4676;42.678;23.244;2023-04-25T02:37:14;93243.50;;;9.72;100.00
9277;BME280;4676;42.678;23.244;2023-04-25T02:39:41;93243.66;;;9.69;100.00
9277;BME280;4676;42.678;23.244;2023-04-25T02:42:07;93239.25;;;9.73;100.00
9277;BME280;4676;42.678;23.244;2023-04-25T02:44:34;93242.44;;;9.76;100.00
9277;BME280;4676;42.678;23.244;2023-04-25T02:47:02;93239.84;;;9.78;100.00
9277;BME280;4676;42.678;23.244;2023-04-25T02:49:29;93239.91;;;9.76;100.00
9277;BME280;4676;42.678;23.244;2023-04-25T02:51:55;93230.09;;;9.70;100.00
9277;BME280;4676;42.678;23.244;2023-04-25T02:54:22;93230.09;;;9.70;100.00
9277;BME280;4676;42.678;23.244;2023-04-25T02:56:49;93232.03;;;9.65;100.00
9277;BME280;4676;42.678;23.244;2023-04-25T02:59:15;93228.28;;;9.57;100.00
9277;BME280;4676;42.678;23.244;2023-04-25T03:01:42;93231.84;;;9.52;100.00
9277;BME280;4676;42.678;23.244;2023-04-25T03:04:10;93226.28;;;9.46;100.00
9277;BME280;4676;42.678;23.244;2023-04-25T03:06:37;93219.91;;;9.39;100.00
9277;BME280;4676;42.678;23.244;2023-04-25T03:09:03;93226.00;;;9.35;100.00
9277;BME280;4676;42.678;23.244;2023-04-25T03:11:30;93231.88;;;9.35;100.00
9277;BME280;4676;42.678;23.244;2023-04-25T03:13:57;93211.25;;;9.26;100.00
9277;BME280;4676;42.678;23.244;2023-04-25T03:16:23;93224.19;;;9.20;100.00
9277;BME280;4676;42.678;23.244;2023-04-25T03:18:50;93223.47;;;9.18;100.00
9277;BME280;4676;42.678;23.244;2023-04-25T03:21:18;93220.19;;;9.16;100.00
9277;BME280;4676;42.678;23.244;2023-04-25T03:23:45;93224.28;;;9.18;100.00
9277;BME280;4676;42.678;23.244;2023-04-25T03:26:12;93223.31;;;9.21;100.00
9277;BME280;4676;42.678;23.244;2023-04-25T03:28:38;93214.03;;;9.21;100.00
9277;BME280;4676;42.678;23.244;2023-04-25T03:31:05;93220.19;;;9.16;100.00
9277;BME280;4676;42.678;23.244;2023-04-25T03:33:32;93217.22;;;9.42;100.00
9277;BME280;4676;42.678;23.244;2023-04-25T03:35:58;93220.16;;;9.50;100.00
9277;BME280;4676;42.678;23.244;2023-04-25T03:38:26;93215.69;;;9.55;100.00
9277;BME280;4676;42.678;23.244;2023-04-25T03:40:53;93211.22;;;9.43;100.00
9277;BME280;4676;42.678;23.244;2023-04-25T03:43:21;93214.06;;;9.54;100.00
9277;BME280;4676;42.678;23.244;2023-04-25T03:45:48;93218.38;;;9.52;100.00
9277;BME280;4676;42.678;23.244;2023-04-25T03:48:14;93219.03;;;9.56;100.00
9277;BME280;4676;42.678;23.244;2023-04-25T03:50:41;93223.94;;;9.59;100.00
9277;BME280;4676;42.678;23.244;2023-04-25T03:53:08;93221.75;;;9.68;100.00
9277;BME280;4676;42.678;23.244;2023-04-25T03:55:36;93232.66;;;9.70;100.00
9277;BME280;4676;42.678;23.244;2023-04-25T03:58:02;93224.84;;;9.90;100.00
9277;BME280;4676;42.678;23.244;2023-04-25T04:00:30;93226.81;;;10.01;100.00
9277;BME280;4676;42.678;23.244;2023-04-25T04:02:57;93225.13;;;10.01;100.00
9277;BME280;4676;42.678;23.244;2023-04-25T04:05:23;93234.69;;;10.12;100.00
9277;BME280;4676;42.678;23.244;2023-04-25T04:07:50;93227.63;;;10.19;100.00
9277;BME280;4676;42.678;23.244;2023-04-25T04:10:17;93230.75;;;10.24;100.00
9277;BME280;4676;42.678;23.244;2023-04-25T04:12:45;93235.06;;;10.22;100.00
9277;BME280;4676;42.678;23.244;2023-04-25T04:15:12;93226.72;;;10.20;100.00
9277;BME280;4676;42.678;23.244;2023-04-25T04:17:38;93237.50;;;10.39;100.00
9277;BME280;4676;42.678;23.244;2023-04-25T04:20:06;93216.69;;;10.34;100.00
9277;BME280;4676;42.678;23.244;2023-04-25T04:22:34;93228.91;;;10.41;100.00
9277;BME280;4676;42.678;23.244;2023-04-25T04:25:00;93232.75;;;10.48;100.00
9277;BME280;4676;42.678;23.244;2023-04-25T04:27:27;93224.28;;;10.49;100.00
9277;BME280;4676;42.678;23.244;2023-04-25T04:29:56;93223.22;;;10.53;100.00
9277;BME280;4676;42.678;23.244;2023-04-25T04:32:23;93226.97;;;10.46;100.00
9277;BME280;4676;42.678;23.244;2023-04-25T04:34:50;93213.66;;;10.43;100.00
9277;BME280;4676;42.678;23.244;2023-04-25T04:37:17;93213.59;;;10.44;100.00
9277;BME280;4676;42.678;23.244;2023-04-25T04:39:45;93221.41;;;10.56;100.00
9277;BME280;4676;42.678;23.244;2023-04-25T04:42:12;93221.34;;;10.57;100.00
9277;BME280;4676;42.678;23.244;2023-04-25T04:44:39;93226.50;;;10.40;100.00
9277;BME280;4676;42.678;23.244;2023-04-25T04:47:07;93237.28;;;10.43;100.00
9277;BME280;4676;42.678;23.244;2023-04-25T04:49:33;93229.28;;;10.51;100.00
9277;BME280;4676;42.678;23.244;2023-04-25T04:52:00;93243.72;;;10.49;100.00
9277;BME280;4676;42.678;23.244;2023-04-25T04:54:27;93244.88;;;10.43;100.00
9277;BME280;4676;42.678;23.244;2023-04-25T04:56:53;93245.44;;;10.33;100.00
9277;BME280;4676;42.678;23.244;2023-04-25T04:59:20;93244.72;;;10.31;100.00
9277;BME280;4676;42.678;23.244;2023-04-25T05:01:47;93238.72;;;10.32;100.00
9277;BME280;4676;42.678;23.244;2023-04-25T05:04:15;93253.09;;;10.31;100.00
9277;BME280;4676;42.678;23.244;2023-04-25T05:06:41;93259.09;;;10.30;100.00
9277;BME280;4676;42.678;23.244;2023-04-25T05:09:09;93259.56;;;10.37;100.00
9277;BME280;4676;42.678;23.244;2023-04-25T05:11:36;93254.41;;;10.38;100.00
9277;BME280;4676;42.678;23.244;2023-04-25T05:14:02;93254.19;;;10.43;100.00
9277;BME280;4676;42.678;23.244;2023-04-25T05:16:29;93255.72;;;10.45;100.00
9277;BME280;4676;42.678;23.244;2023-04-25T05:18:56;93256.53;;;10.46;100.00
9277;BME280;4676;42.678;23.244;2023-04-25T05:21:24;93256.06;;;10.55;100.00
9277;BME280;4676;42.678;23.244;2023-04-25T05:23:50;93255.50;;;10.50;100.00
9277;BME280;4676;42.678;23.244;2023-04-25T05:26:17;93262.44;;;10.46;100.00
9277;BME280;4676;42.678;23.244;2023-04-25T05:28:44;93259.84;;;10.48;100.00
9277;BME280;4676;42.678;23.244;2023-04-25T05:31:10;93258.91;;;10.49;100.00
9277;BME280;4676;42.678;23.244;2023-04-25T05:33:38;93256.97;;;10.54;100.00
9277;BME280;4676;42.678;23.244;2023-04-25T05:36:05;93252.16;;;10.65;100.00
9277;BME280;4676;42.678;23.244;2023-04-25T05:38:33;93248.97;;;10.62;100.00
9277;BME280;4676;42.678;23.244;2023-04-25T05:41:01;93249.94;;;10.75;100.00
9277;BME280;4676;42.678;23.244;2023-04-25T05:43:28;93255.06;;;10.89;100.00
9277;BME280;4676;42.678;23.244;2023-04-25T05:45:55;93255.84;;;11.05;100.00
9277;BME280;4676;42.678;23.244;2023-04-25T05:48:21;93256.34;;;11.12;100.00
9277;BME280;4676;42.678;23.244;2023-04-25T05:50:48;93229.19;;;11.14;100.00
9277;BME280;4676;42.678;23.244;2023-04-25T05:53:16;93253.94;;;11.24;100.00
9277;BME280;4676;42.678;23.244;2023-04-25T05:55:44;93258.41;;;11.35;100.00
9277;BME280;4676;42.678;23.244;2023-04-25T05:58:11;93237.91;;;10.94;100.00
9277;BME280;4676;42.678;23.244;2023-04-25T06:00:38;93254.72;;;11.11;100.00
9277;BME280;4676;42.678;23.244;2023-04-25T06:03:06;93251.94;;;11.15;100.00
9277;BME280;4676;42.678;23.244;2023-04-25T06:05:34;93252.72;;;11.16;100.00
9277;BME280;4676;42.678;23.244;2023-04-25T06:08:01;93257.78;;;11.16;100.00
9277;BME280;4676;42.678;23.244;2023-04-25T06:10:28;93258.44;;;11.19;100.00
9277;BME280;4676;42.678;23.244;2023-04-25T06:12:56;93262.53;;;11.22;100.00
9277;BME280;4676;42.678;23.244;2023-04-25T06:15:22;93260.47;;;11.28;100.00
9277;BME280;4676;42.678;23.244;2023-04-25T06:17:49;93255.75;;;11.22;100.00
9277;BME280;4676;42.678;23.244;2023-04-25T06:20:16;93256.94;;;11.31;100.00
9277;BME280;4676;42.678;23.244;2023-04-25T06:22:43;93261.41;;;11.41;100.00
9277;BME280;4676;42.678;23.244;2023-04-25T06:25:09;93255.03;;;11.64;100.00
9277;BME280;4676;42.678;23.244;2023-04-25T06:27:36;93253.44;;;11.77;100.00
9277;BME280;4676;42.678;23.244;2023-04-25T06:30:06;93253.66;;;12.02;100.00
9277;BME280;4676;42.678;23.244;2023-04-25T06:32:33;93256.53;;;12.25;100.00
9277;BME280;4676;42.678;23.244;2023-04-25T06:34:59;93256.81;;;12.34;100.00
9277;BME280;4676;42.678;23.244;2023-04-25T06:37:26;93266.88;;;12.22;100.00
9277;BME280;4676;42.678;23.244;2023-04-25T06:39:53;93262.56;;;12.24;100.00
9277;BME280;4676;42.678;23.244;2023-04-25T06:42:20;93263.25;;;12.26;100.00
9277;BME280;4676;42.678;23.244;2023-04-25T06:44:47;93263.19;;;12.13;100.00
9277;BME280;4676;42.678;23.244;2023-04-25T06:47:15;93265.63;;;12.15;100.00
9277;BME280;4676;42.678;23.244;2023-04-25T06:49:41;93264.72;;;12.30;100.00
9277;BME280;4676;42.678;23.244;2023-04-25T06:52:08;93262.59;;;12.50;100.00
9277;BME280;4676;42.678;23.244;2023-04-25T06:54:36;93250.34;;;12.57;100.00
9277;BME280;4676;42.678;23.244;2023-04-25T06:57:02;93260.63;;;12.41;100.00
9277;BME280;4676;42.678;23.244;2023-04-25T06:59:29;93255.13;;;12.21;100.00
9277;BME280;4676;42.678;23.244;2023-04-25T07:01:56;93253.84;;;12.28;100.00
9277;BME280;4676;42.678;23.244;2023-04-25T07:04:24;93262.53;;;12.38;100.00
9277;BME280;4676;42.678;23.244;2023-04-25T07:06:51;93269.31;;;12.51;100.00
9277;BME280;4676;42.678;23.244;2023-04-25T07:09:17;93262.22;;;12.57;100.00
9277;BME280;4676;42.678;23.244;2023-04-25T07:11:44;93263.88;;;12.58;100.00
9277;BME280;4676;42.678;23.244;2023-04-25T07:14:11;93265.16;;;12.50;100.00
9277;BME280;4676;42.678;23.244;2023-04-25T07:16:38;93266.78;;;12.51;100.00
9277;BME280;4676;42.678;23.244;2023-04-25T07:19:05;93260.63;;;12.56;100.00
9277;BME280;4676;42.678;23.244;2023-04-25T07:21:33;93261.38;;;12.70;100.00
9277;BME280;4676;42.678;23.244;2023-04-25T07:23:59;93234.63;;;12.65;100.00
9277;BME280;4676;42.678;23.244;2023-04-25T07:26:26;93245.25;;;12.57;100.00
9277;BME280;4676;42.678;23.244;2023-04-25T07:28:53;93251.38;;;12.81;100.00
9277;BME280;4676;42.678;23.244;2023-04-25T07:31:20;93244.09;;;12.89;100.00
9277;BME280;4676;42.678;23.244;2023-04-25T07:33:48;93245.88;;;13.01;100.00
9277;BME280;4676;42.678;23.244;2023-04-25T07:36:14;93249.03;;;13.32;100.00
9277;BME280;4676;42.678;23.244;2023-04-25T07:38:43;93237.84;;;13.34;100.00
9277;BME280;4676;42.678;23.244;2023-04-25T07:41:09;93234.44;;;13.61;100.00
9277;BME280;4676;42.678;23.244;2023-04-25T07:43:36;93239.81;;;13.69;100.00
9277;BME280;4676;42.678;23.244;2023-04-25T07:46:03;93223.06;;;13.79;100.00
9277;BME280;4676;42.678;23.244;2023-04-25T07:48:30;93226.00;;;14.11;100.00
9277;BME280;4676;42.678;23.244;2023-04-25T07:50:57;93223.00;;;14.29;100.00
9277;BME280;4676;42.678;23.244;2023-04-25T07:53:24;93226.88;;;14.47;100.00
9277;BME280;4676;42.678;23.244;2023-04-25T07:55:52;93220.22;;;14.58;100.00
9277;BME280;4676;42.678;23.244;2023-04-25T07:58:19;93227.16;;;14.56;100.00
9277;BME280;4676;42.678;23.244;2023-04-25T08:00:47;93227.72;;;14.72;100.00
9277;BME280;4676;42.678;23.244;2023-04-25T08:03:14;93225.63;;;14.89;100.00
9277;BME280;4676;42.678;23.244;2023-04-25T08:05:40;93224.31;;;15.08;100.00
9277;BME280;4676;42.678;23.244;2023-04-25T08:08:07;93221.09;;;15.40;100.00
9277;BME280;4676;42.678;23.244;2023-04-25T08:10:34;93221.19;;;15.39;100.00
9277;BME280;4676;42.678;23.244;2023-04-25T08:13:02;93214.31;;;15.28;100.00
9277;BME280;4676;42.678;23.244;2023-04-25T08:15:29;93218.84;;;15.25;100.00
9277;BME280;4676;42.678;23.244;2023-04-25T08:17:55;93227.34;;;15.36;100.00
9277;BME280;4676;42.678;23.244;2023-04-25T08:20:22;93219.25;;;15.77;99.42
9277;BME280;4676;42.678;23.244;2023-04-25T08:22:49;93213.00;;;15.92;100.00
9277;BME280;4676;42.678;23.244;2023-04-25T08:25:15;93212.06;;;15.82;96.89
9277;BME280;4676;42.678;23.244;2023-04-25T08:27:42;93212.94;;;15.59;93.36
9277;BME280;4676;42.678;23.244;2023-04-25T08:30:12;93208.13;;;15.43;100.00
9277;BME280;4676;42.678;23.244;2023-04-25T08:32:39;93219.75;;;15.24;97.95
9277;BME280;4676;42.678;23.244;2023-04-25T08:35:06;93209.28;;;15.16;100.00
9277;BME280;4676;42.678;23.244;2023-04-25T08:37:33;93217.13;;;15.02;100.00
9277;BME280;4676;42.678;23.244;2023-04-25T08:40:02;93221.59;;;15.22;100.00
9277;BME280;4676;42.678;23.244;2023-04-25T08:42:33;93207.53;;;15.75;100.00
9277;BME280;4676;42.678;23.244;2023-04-25T08:45:01;93205.81;;;16.09;95.94
9277;BME280;4676;42.678;23.244;2023-04-25T08:47:30;93202.31;;;16.54;95.57
9277;BME280;4676;42.678;23.244;2023-04-25T08:49:59;93167.13;;;16.35;79.75
9277;BME280;4676;42.678;23.244;2023-04-25T08:52:32;93194.63;;;16.54;77.48
9277;BME280;4676;42.678;23.244;2023-04-25T08:55:01;93187.06;;;16.75;81.64
9277;BME280;4676;42.678;23.244;2023-04-25T08:57:31;93200.56;;;16.77;62.99
9277;BME280;4676;42.678;23.244;2023-04-25T08:59:58;93196.84;;;16.81;65.76
9277;BME280;4676;42.678;23.244;2023-04-25T09:02:26;93198.59;;;16.69;67.90
9277;BME280;4676;42.678;23.244;2023-04-25T09:04:54;93196.50;;;16.41;66.68
9277;BME280;4676;42.678;23.244;2023-04-25T09:07:22;93193.28;;;16.28;70.58
9277;BME280;4676;42.678;23.244;2023-04-25T09:09:51;93194.44;;;16.46;71.45
9277;BME280;4676;42.678;23.244;2023-04-25T09:12:18;93187.38;;;16.92;75.19
9277;BME280;4676;42.678;23.244;2023-04-25T09:15:01;93193.91;;;17.17;63.74
9277;BME280;4676;42.678;23.244;2023-04-25T09:17:29;93188.31;;;16.91;64.99
9277;BME280;4676;42.678;23.244;2023-04-25T09:20:05;93187.00;;;16.97;65.04
9277;BME280;4676;42.678;23.244;2023-04-25T09:22:32;93192.03;;;16.98;64.28
9277;BME280;4676;42.678;23.244;2023-04-25T09:25:02;93193.78;;;16.87;60.21
9277;BME280;4676;42.678;23.244;2023-04-25T09:27:29;93201.75;;;16.62;56.67
9277;BME280;4676;42.678;23.244;2023-04-25T09:29:57;93197.31;;;16.53;58.33
9277;BME280;4676;42.678;23.244;2023-04-25T09:32:25;93193.59;;;16.68;60.30
9277;BME280;4676;42.678;23.244;2023-04-25T09:34:53;93198.34;;;16.72;59.66
9277;BME280;4676;42.678;23.244;2023-04-25T09:37:22;93190.31;;;16.88;62.04
9277;BME280;4676;42.678;23.244;2023-04-25T09:39:52;93187.00;;;16.97;60.30
9277;BME280;4676;42.678;23.244;2023-04-25T09:42:21;93198.84;;;17.09;58.91
9277;BME280;4676;42.678;23.244;2023-04-25T09:44:51;93189.81;;;17.26;57.53
9277;BME280;4676;42.678;23.244;2023-04-25T09:47:18;93196.13;;;17.42;54.04
9277;BME280;4676;42.678;23.244;2023-04-25T09:49:47;93197.25;;;17.29;50.29
9277;BME280;4676;42.678;23.244;2023-04-25T09:52:15;93190.06;;;17.23;53.96
9277;BME280;4676;42.678;23.244;2023-04-25T09:54:44;93188.91;;;17.27;53.54
9277;BME280;4676;42.678;23.244;2023-04-25T09:57:12;93187.47;;;17.02;52.72
9277;BME280;4676;42.678;23.244;2023-04-25T09:59:43;93163.72;;;17.00;54.38
9277;BME280;4676;42.678;23.244;2023-04-25T10:02:10;93182.09;;;16.73;59.96
9277;BME280;4676;42.678;23.244;2023-04-25T10:04:38;93195.38;;;16.56;63.71
9277;BME280;4676;42.678;23.244;2023-04-25T10:07:06;93207.91;;;16.59;57.26
9277;BME280;4676;42.678;23.244;2023-04-25T10:09:33;93223.25;;;16.48;63.20
9277;BME280;4676;42.678;23.244;2023-04-25T10:12:04;93202.56;;;15.95;74.05
9277;BME280;4676;42.678;23.244;2023-04-25T10:14:31;93187.31;;;15.72;82.14
9277;BME280;4676;42.678;23.244;2023-04-25T10:16:58;93196.16;;;15.79;77.44
9277;BME280;4676;42.678;23.244;2023-04-25T10:19:26;93200.34;;;16.02;75.29
9277;BME280;4676;42.678;23.244;2023-04-25T10:21:58;93199.19;;;16.28;69.69
9277;BME280;4676;42.678;23.244;2023-04-25T10:24:28;93187.19;;;16.51;69.54
9277;BME280;4676;42.678;23.244;2023-04-25T10:26:56;93177.97;;;16.82;70.28
9277;BME280;4676;42.678;23.244;2023-04-25T10:29:25;93176.16;;;17.05;62.73
9277;BME280;4676;42.678;23.244;2023-04-25T10:31:52;93181.53;;;17.02;59.04
9277;BME280;4676;42.678;23.244;2023-04-25T10:34:19;93183.84;;;17.05;59.65
9277;BME280;4676;42.678;23.244;2023-04-25T10:36:50;93186.00;;;16.88;56.64
9277;BME280;4676;42.678;23.244;2023-04-25T10:39:23;93180.66;;;16.80;55.33
9277;BME280;4676;42.678;23.244;2023-04-25T10:41:54;93180.13;;;17.09;57.68
9277;BME280;4676;42.678;23.244;2023-04-25T10:44:21;93176.84;;;17.07;57.54
9277;BME280;4676;42.678;23.244;2023-04-25T10:46:50;93178.09;;;16.91;55.13
9277;BME280;4676;42.678;23.244;2023-04-25T10:49:34;93173.84;;;16.59;56.60
9277;BME280;4676;42.678;23.244;2023-04-25T10:52:11;93160.13;;;16.37;60.92
9277;BME280;4676;42.678;23.244;2023-04-25T10:54:41;93161.38;;;16.54;63.24
9277;BME280;4676;42.678;23.244;2023-04-25T10:57:26;93166.75;;;16.62;61.60
9277;BME280;4676;42.678;23.244;2023-04-25T10:59:54;93161.41;;;16.43;59.53
9277;BME280;4676;42.678;23.244;2023-04-25T11:02:26;93169.88;;;16.55;60.25
9277;BME280;4676;42.678;23.244;2023-04-25T11:04:53;93162.13;;;16.12;59.91
9277;BME280;4676;42.678;23.244;2023-04-25T11:07:26;93160.75;;;16.08;61.37
9277;BME280;4676;42.678;23.244;2023-04-25T11:09:55;93155.38;;;15.88;63.37
9277;BME280;4676;42.678;23.244;2023-04-25T11:12:24;93145.50;;;15.84;65.45
9277;BME280;4676;42.678;23.244;2023-04-25T11:14:58;93147.72;;;15.77;64.36
9277;BME280;4676;42.678;23.244;2023-04-25T11:17:28;93149.66;;;15.63;64.36
9277;BME280;4676;42.678;23.244;2023-04-25T11:19:54;93160.00;;;15.50;65.64
9277;BME280;4676;42.678;23.244;2023-04-25T11:22:22;93162.69;;;15.25;69.56
9277;BME280;4676;42.678;23.244;2023-04-25T11:24:49;93165.94;;;15.27;72.39
9277;BME280;4676;42.678;23.244;2023-04-25T11:27:16;93156.88;;;14.99;76.17
9277;BME280;4676;42.678;23.244;2023-04-25T11:29:43;93162.25;;;14.72;81.82
9277;BME280;4676;42.678;23.244;2023-04-25T11:32:10;93164.44;;;14.53;83.20
9277;BME280;4676;42.678;23.244;2023-04-25T11:34:38;93175.06;;;14.47;86.30
9277;BME280;4676;42.678;23.244;2023-04-25T11:37:05;93175.94;;;14.35;82.26
9277;BME280;4676;42.678;23.244;2023-04-25T11:39:31;93185.13;;;14.12;80.50
9277;BME280;4676;42.678;23.244;2023-04-25T11:41:58;93193.88;;;13.83;90.39
9277;BME280;4676;42.678;23.244;2023-04-25T11:44:26;93179.44;;;13.58;98.95
9277;BME280;4676;42.678;23.244;2023-04-25T11:46:53;93168.53;;;13.69;100.00
9277;BME280;4676;42.678;23.244;2023-04-25T11:49:19;93154.91;;;13.82;100.00
9277;BME280;4676;42.678;23.244;2023-04-25T11:51:48;93141.75;;;13.88;100.00
9277;BME280;4676;42.678;23.244;2023-04-25T11:54:15;93146.47;;;14.18;100.00
9277;BME280;4676;42.678;23.244;2023-04-25T11:56:42;93148.16;;;14.43;100.00
9277;BME280;4676;42.678;23.244;2023-04-25T11:59:10;93139.81;;;14.88;100.00
9277;BME280;4676;42.678;23.244;2023-04-25T12:01:39;93130.59;;;15.10;100.00
9277;BME280;4676;42.678;23.244;2023-04-25T12:04:12;93123.78;;;15.56;100.00
9277;BME280;4676;42.678;23.244;2023-04-25T12:06:40;93131.91;;;15.83;100.00
9277;BME280;4676;42.678;23.244;2023-04-25T12:09:09;93138.78;;;15.94;98.29
9277;BME280;4676;42.678;23.244;2023-04-25T12:11:43;93139.16;;;16.01;95.56
9277;BME280;4676;42.678;23.244;2023-04-25T12:14:10;93143.88;;;16.05;98.44
9277;BME280;4676;42.678;23.244;2023-04-25T12:16:40;93140.31;;;16.08;87.80
9277;BME280;4676;42.678;23.244;2023-04-25T12:19:07;93145.63;;;16.05;80.73
9277;BME280;4676;42.678;23.244;2023-04-25T12:21:34;93141.22;;;16.07;79.19
9277;BME280;4676;42.678;23.244;2023-04-25T12:24:13;93173.75;;;15.93;71.46
9277;BME280;4676;42.678;23.244;2023-04-25T12:26:48;93186.91;;;15.19;81.55
9277;BME280;4676;42.678;23.244;2023-04-25T12:29:17;93196.53;;;14.07;100.00
9277;BME280;4676;42.678;23.244;2023-04-25T12:31:43;93203.88;;;13.61;100.00
9277;BME280;4676;42.678;23.244;2023-04-25T12:34:10;93192.53;;;13.00;100.00
9277;BME280;4676;42.678;23.244;2023-04-25T12:36:37;93203.88;;;12.55;100.00
9277;BME280;4676;42.678;23.244;2023-04-25T12:39:04;93196.53;;;12.50;100.00
9277;BME280;4676;42.678;23.244;2023-04-25T12:41:33;93193.94;;;12.38;100.00
9277;BME280;4676;42.678;23.244;2023-04-25T12:44:00;93194.56;;;12.41;100.00
9277;BME280;4676;42.678;23.244;2023-04-25T12:46:27;93198.91;;;12.39;100.00
9277;BME280;4676;42.678;23.244;2023-04-25T12:48:53;93200.63;;;12.39;100.00
9277;BME280;4676;42.678;23.244;2023-04-25T12:51:22;93203.66;;;12.31;100.00
9277;BME280;4676;42.678;23.244;2023-04-25T12:53:50;93211.19;;;12.33;100.00
9277;BME280;4676;42.678;23.244;2023-04-25T12:56:17;93215.53;;;12.31;100.00
9277;BME280;4676;42.678;23.244;2023-04-25T12:58:47;93230.03;;;12.29;100.00
9277;BME280;4676;42.678;23.244;2023-04-25T13:01:14;93230.81;;;12.17;100.00
9277;BME280;4676;42.678;23.244;2023-04-25T13:03:40;93233.78;;;12.23;100.00
9277;BME280;4676;42.678;23.244;2023-04-25T13:06:07;93202.88;;;12.02;100.00
9277;BME280;4676;42.678;23.244;2023-04-25T13:08:34;93222.44;;;12.15;100.00
9277;BME280;4676;42.678;23.244;2023-04-25T13:11:02;93217.81;;;12.07;100.00